Time;durP1;ratioP1;P1;durP2;ratioP2;P2;SDS_P1;SDS_P2;PMS_P1;PMS_P2;Temp;Humidity;BMP_temperature;BMP_pressure;BME280_temperature;BME280_humidity;BME280_pressure;Samples;Min_cycle;Max_cycle;Signal;HPM_P1;HPM_P2
2022/10/23 00:01:58;;;;;;;12.80;10.87;;;;;;;8.43;100.00;97325.06;5001110;28;22364;-65
2022/10/23 00:04:28;;;;;;;11.33;10.23;;;;;;;8.37;100.00;97313.38;5012890;28;20331;-63
2022/10/23 00:06:56;;;;;;;11.87;10.43;;;;;;;8.39;100.00;97320.09;4964174;28;20938;-61
2022/10/23 00:09:25;;;;;;;15.43;12.27;;;;;;;8.33;100.00;97320.78;4983824;28;20248;-62
2022/10/23 00:11:53;;;;;;;15.70;10.97;;;;;;;8.35;100.00;97324.06;5011984;28;20590;-64
2022/10/23 00:14:23;;;;;;;19.93;11.07;;;;;;;8.36;100.00;97319.63;4985665;28;20299;-63
2022/10/23 00:16:52;;;;;;;16.53;11.00;;;;;;;8.35;100.00;97320.63;4970010;28;20494;-63
2022/10/23 00:19:20;;;;;;;17.83;10.60;;;;;;;8.34;100.00;97332.19;5019316;28;20797;-64
2022/10/23 00:21:50;;;;;;;11.40;10.20;;;;;;;8.38;100.00;97328.22;4963785;28;20427;-64
2022/10/23 00:24:19;;;;;;;11.60;10.60;;;;;;;8.38;100.00;97326.38;4984568;28;20558;-65
2022/10/23 00:26:49;;;;;;;12.90;11.47;;;;;;;8.44;100.00;97326.69;5009891;28;20321;-64
2022/10/23 00:29:17;;;;;;;20.10;13.10;;;;;;;8.40;100.00;97319.13;4987505;28;20211;-64
2022/10/23 00:31:46;;;;;;;16.30;12.93;;;;;;;8.48;100.00;97325.38;4983572;28;20206;-63
2022/10/23 00:34:14;;;;;;;15.33;13.77;;;;;;;8.50;100.00;97334.81;5015849;28;20205;-63
2022/10/23 00:36:45;;;;;;;23.97;14.13;;;;;;;8.53;100.00;97337.13;4973730;28;20223;-62
2022/10/23 00:39:15;;;;;;;14.10;12.63;;;;;;;8.54;100.00;97335.31;4983114;28;20231;-62
2022/10/23 00:41:43;;;;;;;20.43;13.60;;;;;;;8.59;100.00;97330.38;5014636;28;21339;-62
2022/10/23 00:44:50;;;;;;;20.27;13.83;;;;;;;8.51;100.00;97319.78;5014715;28;20602;-65
2022/10/23 00:47:18;;;;;;;17.43;12.27;;;;;;;8.56;100.00;97321.94;4986718;28;20661;-62
2022/10/23 00:49:46;;;;;;;21.60;13.83;;;;;;;8.55;100.00;97323.78;5011503;28;20385;-63
2022/10/23 00:52:15;;;;;;;20.40;13.40;;;;;;;8.50;100.00;97316.34;5014461;28;20203;-64
2022/10/23 00:54:45;;;;;;;17.87;14.23;;;;;;;8.57;100.00;97331.50;4922807;28;20216;-64
2022/10/23 00:57:15;;;;;;;14.90;11.83;;;;;;;8.54;100.00;97338.78;5010347;28;20251;-65
2022/10/23 00:59:43;;;;;;;13.70;12.17;;;;;;;8.57;100.00;97335.00;5002952;28;20296;-64
2022/10/23 01:02:11;;;;;;;15.43;11.83;;;;;;;8.59;100.00;97334.81;4964436;28;20222;-66
2022/10/23 01:04:40;;;;;;;13.10;11.80;;;;;;;8.61;100.00;97343.38;5012388;28;20598;-61
2022/10/23 01:07:13;;;;;;;11.03;10.00;;;;;;;8.71;100.00;97340.56;5015650;28;20484;-65
2022/10/23 01:09:49;;;;;;;14.27;11.20;;;;;;;8.65;100.00;97336.78;4949410;28;20297;-63
2022/10/23 01:12:23;;;;;;;15.57;12.10;;;;;;;8.63;100.00;97338.75;4980923;28;20213;-66
2022/10/23 01:15:02;;;;;;;12.63;11.43;;;;;;;8.69;100.00;97351.28;4987851;28;20432;-64
2022/10/23 01:17:36;;;;;;;11.87;9.70;;;;;;;8.70;100.00;97339.72;4947211;28;21606;-63
2022/10/23 01:20:20;;;;;;;12.13;10.67;;;;;;;8.75;100.00;97341.88;4976396;28;20534;-62
2022/10/23 01:23:11;;;;;;;16.77;11.27;;;;;;;8.76;100.00;97339.09;5012311;28;20839;-63
2022/10/23 01:25:57;;;;;;;11.63;9.87;;;;;;;8.74;100.00;97335.78;4961517;28;20423;-65
2022/10/23 01:28:30;;;;;;;19.27;10.47;;;;;;;8.78;100.00;97333.59;4983565;28;20215;-65
2022/10/23 01:31:01;;;;;;;14.17;9.70;;;;;;;8.72;100.00;97337.78;5017213;28;20211;-62
2022/10/23 01:33:33;;;;;;;10.43;8.70;;;;;;;8.71;100.00;97330.81;4960123;28;20325;-63
2022/10/23 01:36:04;;;;;;;17.10;11.03;;;;;;;8.71;100.00;97322.88;5014675;28;20790;-63
2022/10/23 01:38:37;;;;;;;18.83;9.40;;;;;;;8.71;100.00;97325.53;5010228;28;20642;-64
2022/10/23 01:41:10;;;;;;;15.53;8.97;;;;;;;8.65;100.00;97313.00;4965186;28;20808;-63
2022/10/23 01:43:44;;;;;;;14.33;9.77;;;;;;;8.67;100.00;97309.22;4983554;28;20375;-64
2022/10/23 01:46:15;;;;;;;21.40;9.13;;;;;;;8.58;100.00;97298.81;5012203;28;20249;-63
2022/10/23 01:48:46;;;;;;;9.77;8.87;;;;;;;8.54;100.00;97293.06;4954279;28;20406;-60
2022/10/23 01:51:15;;;;;;;18.77;10.63;;;;;;;8.52;100.00;97287.09;5013922;28;20203;-64
2022/10/23 01:53:45;;;;;;;18.07;11.10;;;;;;;8.51;100.00;97281.00;4980891;28;20206;-64
2022/10/23 01:56:22;;;;;;;18.80;11.10;;;;;;;8.44;100.00;97284.44;4968035;28;20569;-64
2022/10/23 01:58:53;;;;;;;11.77;9.13;;;;;;;8.47;100.00;97286.75;4989067;28;21089;-64
2022/10/23 02:01:24;;;;;;;11.80;8.93;;;;;;;8.36;100.00;97274.75;5018355;28;20203;-64
2022/10/23 02:03:54;;;;;;;9.27;8.27;;;;;;;8.38;100.00;97268.28;4993237;28;20207;-65
2022/10/23 02:06:22;;;;;;;11.87;8.37;;;;;;;8.44;100.00;97281.81;5016950;28;20222;-64
2022/10/23 02:08:50;;;;;;;10.00;7.97;;;;;;;8.43;100.00;97274.88;5015593;28;20222;-65
2022/10/23 02:11:21;;;;;;;8.83;7.97;;;;;;;8.46;100.00;97278.03;4965104;28;20206;-64
2022/10/23 02:13:56;;;;;;;9.47;8.57;;;;;;;8.42;100.00;97279.34;4983508;28;20436;-63
2022/10/23 02:16:29;;;;;;;12.70;11.00;;;;;;;8.41;100.00;97277.72;5017606;28;20234;-63
2022/10/23 02:19:06;;;;;;;8.80;8.17;;;;;;;8.45;100.00;97275.53;4989831;28;20207;-62
2022/10/23 02:21:41;;;;;;;13.20;7.90;;;;;;;8.40;100.00;97278.69;5016319;28;20214;-63
2022/10/23 02:24:12;;;;;;;9.10;8.27;;;;;;;8.39;100.00;97285.78;5018183;28;20831;-65
2022/10/23 02:26:42;;;;;;;9.27;8.37;;;;;;;8.38;100.00;97291.25;4963750;28;20823;-65
2022/10/23 02:29:15;;;;;;;10.77;8.57;;;;;;;8.37;100.00;97284.31;4988724;28;21665;-65
2022/10/23 02:31:44;;;;;;;9.33;8.63;;;;;;;8.43;100.00;97283.66;5013828;28;20280;-62
2022/10/23 02:34:12;;;;;;;9.70;8.90;;;;;;;8.43;100.00;97281.00;5020097;28;20218;-65
2022/10/23 02:36:41;;;;;;;13.07;9.40;;;;;;;8.36;100.00;97282.66;4979563;28;20456;-64
2022/10/23 02:39:09;;;;;;;8.93;8.23;;;;;;;8.45;100.00;97279.03;5016607;28;20673;-64
2022/10/23 02:41:41;;;;;;;9.13;8.43;;;;;;;8.52;100.00;97276.53;4964948;28;22045;-65
2022/10/23 02:44:29;;;;;;;8.33;7.57;;;;;;;8.49;100.00;97275.06;4987079;28;20604;-63
2022/10/23 02:47:09;;;;;;;9.43;7.77;;;;;;;8.45;100.00;97279.03;5016787;28;20724;-65
2022/10/23 02:49:42;;;;;;;7.73;7.03;;;;;;;8.27;100.00;97281.84;4986222;28;20805;-62
2022/10/23 02:52:15;;;;;;;7.13;6.53;;;;;;;8.34;100.00;97279.38;5017846;28;20211;-65
2022/10/23 02:55:00;;;;;;;7.93;7.33;;;;;;;8.32;100.00;97265.50;5012761;28;20614;-62
2022/10/23 02:57:32;;;;;;;8.40;7.70;;;;;;;8.29;100.00;97256.09;4976248;28;20226;-64
2022/10/23 03:00:06;;;;;;;8.20;7.50;;;;;;;8.43;100.00;97256.41;5016904;28;20269;-64
2022/10/23 03:02:38;;;;;;;8.90;8.10;;;;;;;8.43;100.00;97257.25;4984863;28;20236;-63
2022/10/23 03:05:09;;;;;;;8.10;7.50;;;;;;;8.40;100.00;97253.09;5017407;28;20845;-62
2022/10/23 03:07:39;;;;;;;8.43;7.63;;;;;;;8.29;100.00;97248.19;4984184;28;20837;-62
2022/10/23 03:10:09;;;;;;;10.53;8.47;;;;;;;8.29;100.00;97250.00;5016511;28;20214;-62
2022/10/23 03:12:37;;;;;;;17.07;8.53;;;;;;;8.25;100.00;97252.16;5012863;28;20316;-63
2022/10/23 03:15:09;;;;;;;9.70;8.70;;;;;;;8.06;100.00;97242.78;4969550;28;20385;-64
2022/10/23 03:17:37;;;;;;;8.93;8.13;;;;;;;8.09;100.00;97245.88;5014225;28;21710;-63
2022/10/23 03:20:06;;;;;;;10.93;8.87;;;;;;;7.97;100.00;97239.31;5017283;28;20229;-64
2022/10/23 03:22:34;;;;;;;9.53;8.23;;;;;;;7.92;100.00;97249.53;4981572;28;20888;-63
2022/10/23 03:25:03;;;;;;;9.50;8.60;;;;;;;7.88;100.00;97250.88;5016081;28;20440;-60
2022/10/23 03:27:32;;;;;;;9.27;8.57;;;;;;;7.86;100.00;97250.22;5013378;28;20218;-64
2022/10/23 03:30:00;;;;;;;9.63;8.93;;;;;;;7.88;100.00;97253.50;4966524;28;20364;-62
2022/10/23 03:32:30;;;;;;;10.73;9.90;;;;;;;7.87;100.00;97254.50;4998498;28;21987;-62
2022/10/23 03:34:58;;;;;;;9.90;9.00;;;;;;;7.94;100.00;97255.47;5020192;28;20349;-63
2022/10/23 03:37:26;;;;;;;9.47;8.67;;;;;;;7.95;100.00;97265.03;4986581;28;20691;-65
2022/10/23 03:39:55;;;;;;;8.80;8.10;;;;;;;8.02;100.00;97271.31;5017905;28;20206;-62
2022/10/23 03:42:23;;;;;;;11.00;9.97;;;;;;;8.06;100.00;97283.16;5013641;28;20771;-64
2022/10/23 03:44:51;;;;;;;10.73;9.80;;;;;;;8.10;100.00;97276.56;4963947;28;20221;-63
2022/10/23 03:47:20;;;;;;;10.80;9.57;;;;;;;8.15;100.00;97278.72;5013663;28;20608;-63
2022/10/23 03:49:49;;;;;;;10.67;9.77;;;;;;;8.18;100.00;97267.03;5012170;28;20831;-63
2022/10/23 03:52:17;;;;;;;33.33;11.83;;;;;;;8.09;100.00;97261.72;4987167;28;20671;-63
2022/10/23 03:54:46;;;;;;;16.60;10.63;;;;;;;8.18;100.00;97280.22;5015863;28;20414;-62
2022/10/23 03:57:14;;;;;;;15.67;10.70;;;;;;;8.21;100.00;97274.59;5015888;28;20230;-61
2022/10/23 03:59:43;;;;;;;10.93;9.10;;;;;;;8.26;100.00;97261.72;4960672;28;20877;-63
2022/10/23 04:02:11;;;;;;;18.23;10.47;;;;;;;8.17;100.00;97247.72;5017503;28;20219;-63
2022/10/23 04:04:39;;;;;;;19.43;10.50;;;;;;;8.20;100.00;97260.56;5012400;28;20890;-65
2022/10/23 04:07:09;;;;;;;18.13;10.50;;;;;;;8.28;100.00;97256.25;5016551;28;20417;-62
2022/10/23 04:09:37;;;;;;;18.50;9.20;;;;;;;8.25;100.00;97250.31;4953733;28;20211;-64
2022/10/23 04:12:06;;;;;;;17.97;10.43;;;;;;;8.26;100.00;97251.16;5016371;28;20738;-60
2022/10/23 04:14:35;;;;;;;17.10;11.00;;;;;;;8.22;100.00;97253.31;4962604;28;20211;-59
2022/10/23 04:17:03;;;;;;;18.87;11.27;;;;;;;8.24;100.00;97261.06;5012928;28;20547;-57
2022/10/23 04:19:31;;;;;;;14.87;10.90;;;;;;;8.25;100.00;97263.53;5014527;28;20198;-58
2022/10/23 04:21:59;;;;;;;17.70;10.03;;;;;;;8.31;100.00;97253.28;4981954;28;21172;-55
2022/10/23 04:24:29;;;;;;;21.07;10.60;;;;;;;8.28;100.00;97246.53;4981556;28;20215;-57
2022/10/23 04:26:57;;;;;;;10.90;9.80;;;;;;;8.23;100.00;97254.16;4987968;28;20534;-58
2022/10/23 04:29:28;;;;;;;26.43;11.00;;;;;;;8.21;100.00;97256.94;4940718;28;21037;-55
2022/10/23 04:31:56;;;;;;;26.67;11.50;;;;;;;8.16;100.00;97255.81;4967818;28;20340;-57
2022/10/23 04:34:24;;;;;;;13.70;10.03;;;;;;;8.30;100.00;97257.75;4988340;28;20701;-57
2022/10/23 04:36:53;;;;;;;25.00;10.77;;;;;;;8.28;100.00;97251.81;5010154;28;20226;-56
2022/10/23 04:39:21;;;;;;;32.57;11.53;;;;;;;8.30;100.00;97249.84;4989254;28;20586;-57
2022/10/23 04:41:50;;;;;;;16.63;11.20;;;;;;;8.25;100.00;97239.78;5009103;28;20265;-56
2022/10/23 04:44:19;;;;;;;13.33;8.60;;;;;;;8.30;100.00;97247.19;5014060;28;20210;-62
2022/10/23 04:46:47;;;;;;;20.03;10.30;;;;;;;8.25;100.00;97247.69;4928427;28;20230;-62
2022/10/23 04:49:15;;;;;;;11.00;9.90;;;;;;;8.26;100.00;97249.34;4983554;28;20217;-62
2022/10/23 04:51:43;;;;;;;23.13;11.20;;;;;;;8.33;100.00;97257.41;5012119;28;20207;-63
2022/10/23 04:54:12;;;;;;;14.93;11.17;;;;;;;8.32;100.00;97253.13;5013943;28;20218;-65
2022/10/23 04:56:40;;;;;;;12.93;9.83;;;;;;;8.34;100.00;97252.97;4971146;28;20245;-61
2022/10/23 04:59:10;;;;;;;13.90;9.60;;;;;;;8.28;100.00;97246.53;5002892;28;20772;-62
2022/10/23 05:01:38;;;;;;;12.60;10.27;;;;;;;8.28;100.00;97251.81;4965563;28;20362;-62
2022/10/23 05:04:06;;;;;;;11.10;10.10;;;;;;;8.30;100.00;97254.28;4979722;28;21044;-61
2022/10/23 05:06:35;;;;;;;11.40;10.30;;;;;;;8.24;100.00;97253.97;5014150;28;20613;-62
2022/10/23 05:09:03;;;;;;;18.90;11.17;;;;;;;8.26;100.00;97248.53;5012820;28;20419;-63
2022/10/23 05:11:31;;;;;;;13.37;9.70;;;;;;;8.35;100.00;97255.44;4986392;28;20737;-63
2022/10/23 05:13:59;;;;;;;9.97;9.03;;;;;;;8.40;100.00;97250.47;5011034;28;20862;-64
2022/10/23 05:16:35;;;;;;;13.00;9.67;;;;;;;8.43;100.00;97259.88;4963397;28;20238;-62
2022/10/23 05:19:04;;;;;;;11.40;9.67;;;;;;;8.42;100.00;97242.38;5008237;28;21001;-62
2022/10/23 05:21:35;;;;;;;10.53;9.63;;;;;;;8.47;100.00;97245.34;4984840;28;20233;-64
2022/10/23 05:24:03;;;;;;;13.57;9.77;;;;;;;8.48;100.00;97251.44;5014132;28;21295;-61
2022/10/23 05:26:32;;;;;;;10.33;9.37;;;;;;;8.45;100.00;97243.84;5014469;28;20822;-62
2022/10/23 05:29:00;;;;;;;11.97;10.73;;;;;;;8.47;100.00;97258.56;4991987;28;20554;-63
2022/10/23 05:31:30;;;;;;;13.27;10.70;;;;;;;8.39;100.00;97235.63;4979141;28;20207;-64
2022/10/23 05:34:00;;;;;;;16.47;11.20;;;;;;;8.50;100.00;97249.47;4959526;28;20306;-63
2022/10/23 05:36:29;;;;;;;12.70;11.43;;;;;;;8.53;100.00;97235.97;4984676;28;20647;-63
2022/10/23 05:38:58;;;;;;;12.87;11.67;;;;;;;8.52;100.00;97240.41;4996840;28;20548;-63
2022/10/23 05:41:26;;;;;;;13.10;11.80;;;;;;;8.54;100.00;97232.34;5015870;28;20219;-63
2022/10/23 05:43:54;;;;;;;12.13;10.97;;;;;;;8.56;100.00;97240.06;4987352;28;20587;-62
2022/10/23 05:46:23;;;;;;;11.37;10.27;;;;;;;8.51;100.00;97238.75;5017340;28;20222;-64
2022/10/23 05:48:52;;;;;;;11.20;10.17;;;;;;;8.53;100.00;97238.59;4970379;28;20210;-65
2022/10/23 05:51:22;;;;;;;14.03;12.10;;;;;;;8.58;100.00;97238.91;5023021;28;20215;-60
2022/10/23 05:53:51;;;;;;;12.60;11.40;;;;;;;8.53;100.00;97239.41;4995693;28;20226;-65
2022/10/23 05:56:19;;;;;;;10.97;10.07;;;;;;;8.53;100.00;97241.25;5026964;28;20230;-63
2022/10/23 05:58:48;;;;;;;11.07;10.17;;;;;;;8.57;100.00;97244.34;4970800;28;20679;-64
2022/10/23 06:01:17;;;;;;;11.70;10.57;;;;;;;8.57;100.00;97245.19;4993489;28;20800;-63
2022/10/23 06:03:45;;;;;;;11.20;10.20;;;;;;;8.60;100.00;97238.72;4970262;28;20211;-65
2022/10/23 06:06:15;;;;;;;11.73;10.60;;;;;;;8.63;100.00;97251.59;5013020;28;20219;-62
2022/10/23 06:08:43;;;;;;;11.43;10.43;;;;;;;8.67;100.00;97251.09;4966405;28;22663;-64
2022/10/23 06:11:13;;;;;;;10.97;9.97;;;;;;;8.70;100.00;97249.91;5015740;28;20213;-64
2022/10/23 06:13:43;;;;;;;11.07;10.10;;;;;;;8.75;100.00;97252.06;5015021;28;20206;-63
2022/10/23 06:16:12;;;;;;;11.23;9.67;;;;;;;8.75;100.00;97246.78;4989465;28;20231;-63
2022/10/23 06:18:40;;;;;;;11.40;8.80;;;;;;;8.87;100.00;97257.81;4968794;28;22510;-64
2022/10/23 06:21:09;;;;;;;10.53;9.60;;;;;;;8.87;100.00;97260.44;4987586;28;20204;-63
2022/10/23 06:23:39;;;;;;;11.43;10.30;;;;;;;8.87;100.00;97257.81;4989574;28;20230;-62
2022/10/23 06:26:11;;;;;;;12.87;10.57;;;;;;;8.95;100.00;97252.47;4987346;28;20249;-63
2022/10/23 06:28:39;;;;;;;11.27;9.93;;;;;;;9.01;100.00;97254.44;5017809;28;20207;-62
2022/10/23 06:31:09;;;;;;;14.17;11.40;;;;;;;9.09;100.00;97251.75;4974706;28;20673;-64
2022/10/23 06:33:37;;;;;;;13.50;12.13;;;;;;;9.14;100.00;97242.50;4980391;28;20241;-64
2022/10/23 06:36:09;;;;;;;13.77;12.37;;;;;;;9.19;100.00;97246.25;4968224;28;20224;-63
2022/10/23 06:38:39;;;;;;;14.97;12.47;;;;;;;9.22;100.00;97245.88;5009414;28;20663;-63
2022/10/23 06:41:11;;;;;;;18.53;13.57;;;;;;;9.30;100.00;97244.22;4994479;28;20260;-62
2022/10/23 06:43:39;;;;;;;26.37;15.10;;;;;;;9.35;100.00;97247.16;5021412;28;21299;-63
2022/10/23 06:46:07;;;;;;;24.03;15.30;;;;;;;9.45;100.00;97253.03;4982288;28;20444;-63
2022/10/23 06:48:35;;;;;;;19.87;14.70;;;;;;;9.35;100.00;97255.91;5017108;28;20199;-63
2022/10/23 06:51:06;;;;;;;18.50;14.77;;;;;;;9.40;100.00;97255.41;4975934;28;20215;-64
2022/10/23 06:53:35;;;;;;;28.93;16.23;;;;;;;9.45;100.00;97254.84;4995280;28;20245;-63
2022/10/23 06:56:06;;;;;;;29.17;16.00;;;;;;;9.49;100.00;97264.09;4989577;28;20207;-63
2022/10/23 06:58:35;;;;;;;19.43;14.33;;;;;;;9.61;100.00;97268.00;5018557;28;20207;-64
2022/10/23 07:01:04;;;;;;;52.40;16.97;;;;;;;9.70;100.00;97245.75;4991225;28;20214;-65
2022/10/23 07:03:34;;;;;;;18.40;15.03;;;;;;;9.69;100.00;97244.13;5012185;28;20479;-63
2022/10/23 07:06:02;;;;;;;35.53;15.20;;;;;;;9.68;100.00;97247.75;4981285;28;20214;-63
2022/10/23 07:08:31;;;;;;;26.93;14.80;;;;;;;9.69;100.00;97235.38;5014969;28;20226;-64
2022/10/23 07:11:05;;;;;;;15.03;12.43;;;;;;;9.93;100.00;97236.16;4999303;28;21001;-63
2022/10/23 07:13:34;;;;;;;18.07;12.90;;;;;;;10.01;100.00;97235.28;4988512;28;21017;-65
2022/10/23 07:16:10;;;;;;;28.87;14.87;;;;;;;10.18;100.00;97242.03;4996265;28;20284;-64
2022/10/23 07:18:38;;;;;;;34.60;14.13;;;;;;;10.06;100.00;97251.44;5017514;28;20663;-64
2022/10/23 07:21:06;;;;;;;16.90;13.00;;;;;;;10.18;100.00;97255.28;4941715;28;20242;-62
2022/10/23 07:23:34;;;;;;;21.50;13.37;;;;;;;10.35;100.00;97255.16;5009601;28;20234;-63
2022/10/23 07:26:06;;;;;;;30.37;15.40;;;;;;;10.54;100.00;97257.28;5013043;28;20897;-62
2022/10/23 07:28:34;;;;;;;20.47;13.97;;;;;;;10.60;100.00;97258.41;4996922;28;20234;-63
2022/10/23 07:31:03;;;;;;;32.50;15.13;;;;;;;10.60;100.00;97250.44;4971470;28;20210;-63
2022/10/23 07:33:31;;;;;;;20.77;11.57;;;;;;;10.37;100.00;97250.50;5019400;28;20198;-63
2022/10/23 07:35:59;;;;;;;31.33;12.80;;;;;;;10.40;100.00;97258.91;4944051;28;20221;-61
2022/10/23 07:38:27;;;;;;;19.87;12.13;;;;;;;10.46;100.00;97253.91;5000802;28;20195;-61
2022/10/23 07:40:58;;;;;;;28.27;14.17;;;;;;;10.50;100.00;97257.84;5015523;28;20324;-61
2022/10/23 07:43:27;;;;;;;16.37;12.23;;;;;;;10.57;100.00;97248.16;4985861;28;21051;-62
2022/10/23 07:45:55;;;;;;;18.67;12.73;;;;;;;10.83;100.00;97246.88;5015529;28;20295;-62
2022/10/23 07:48:26;;;;;;;17.77;11.90;;;;;;;11.10;100.00;97257.81;4966934;28;21369;-62
2022/10/23 07:50:59;;;;;;;17.17;12.87;;;;;;;11.14;100.00;97259.91;4977034;28;20207;-61
2022/10/23 07:53:28;;;;;;;13.37;12.10;;;;;;;11.09;100.00;97254.34;5013741;28;20211;-61
2022/10/23 07:55:58;;;;;;;12.73;11.43;;;;;;;11.04;100.00;97256.72;5011995;28;20662;-60
2022/10/23 07:58:29;;;;;;;13.20;11.97;;;;;;;11.13;100.00;97249.47;5018518;28;20199;-60
2022/10/23 08:00:59;;;;;;;12.37;11.37;;;;;;;11.34;100.00;97240.75;5011542;28;20225;-60
2022/10/23 08:03:27;;;;;;;12.60;11.50;;;;;;;11.61;100.00;97233.06;4989479;28;20226;-62
2022/10/23 08:05:57;;;;;;;12.17;11.17;;;;;;;11.59;100.00;97237.75;4970562;28;20218;-61
2022/10/23 08:08:26;;;;;;;12.47;11.27;;;;;;;11.63;100.00;97232.88;4972962;28;20208;-59
2022/10/23 08:10:56;;;;;;;11.57;10.60;;;;;;;11.50;100.00;97228.25;5008924;28;20225;-60
2022/10/23 08:13:24;;;;;;;11.93;10.93;;;;;;;11.53;100.00;97228.69;5014932;28;21028;-62
2022/10/23 08:15:54;;;;;;;12.23;11.13;;;;;;;11.55;100.00;97225.88;5014285;28;20206;-62
2022/10/23 08:18:22;;;;;;;12.17;11.13;;;;;;;11.50;100.00;97229.06;4995358;28;20594;-62
2022/10/23 08:20:51;;;;;;;10.97;10.07;;;;;;;11.51;100.00;97225.41;4991057;28;20206;-63
2022/10/23 08:23:20;;;;;;;11.63;10.53;;;;;;;11.68;100.00;97218.00;4974758;28;20229;-63
2022/10/23 08:25:48;;;;;;;10.27;9.37;;;;;;;12.01;100.00;97204.25;4999468;28;21207;-63
2022/10/23 08:28:16;;;;;;;10.87;9.97;;;;;;;12.42;100.00;97207.16;4979373;28;20905;-64
2022/10/23 08:30:44;;;;;;;11.43;10.40;;;;;;;12.58;100.00;97208.69;5013106;28;20199;-62
2022/10/23 08:33:14;;;;;;;10.03;9.03;;;;;;;13.10;100.00;97198.50;4991365;28;21041;-63
2022/10/23 08:35:42;;;;;;;10.30;9.50;;;;;;;14.28;100.00;97200.91;4955570;28;20251;-59
2022/10/23 08:38:10;;;;;;;9.50;8.80;;;;;;;15.50;100.00;97191.41;4976557;28;20230;-57
2022/10/23 08:40:38;;;;;;;9.00;8.27;;;;;;;16.04;100.00;97180.34;5010456;28;20206;-55
2022/10/23 08:43:14;;;;;;;8.43;7.80;;;;;;;17.13;100.00;97168.28;5014699;28;20231;-58
2022/10/23 08:45:45;;;;;;;8.13;7.53;;;;;;;16.67;100.00;97162.44;5015667;28;20201;-56
2022/10/23 08:48:20;;;;;;;8.07;7.43;;;;;;;16.21;100.00;97164.56;5013560;28;20203;-57
2022/10/23 08:50:52;;;;;;;7.13;6.60;;;;;;;15.31;100.00;97167.28;4984410;28;20214;-58
2022/10/23 08:53:22;;;;;;;6.23;5.83;;;;;;;14.66;100.00;97167.38;4963602;28;20218;-55
2022/10/23 08:55:55;;;;;;;7.13;6.63;;;;;;;14.50;100.00;97171.31;5011778;28;20875;-58
2022/10/23 08:58:28;;;;;;;6.50;6.00;;;;;;;14.41;100.00;97160.06;5015267;28;20303;-61
2022/10/23 09:00:56;;;;;;;6.43;5.93;;;;;;;14.16;100.00;97163.41;5018460;28;20206;-62
2022/10/23 09:03:27;;;;;;;5.37;4.97;;;;;;;14.36;100.00;97165.19;5014237;28;20238;-62
2022/10/23 09:06:07;;;;;;;5.40;5.03;;;;;;;14.16;100.00;97177.53;4988910;28;20850;-62
2022/10/23 09:08:45;;;;;;;5.70;5.30;;;;;;;14.05;100.00;97175.50;5015759;28;20406;-64
2022/10/23 09:11:18;;;;;;;5.63;5.23;;;;;;;13.78;100.00;97177.34;4984159;28;20209;-58
2022/10/23 09:14:26;;;;;;;5.77;5.27;;;;;;;13.80;100.00;97180.63;5016448;28;20199;-60
2022/10/23 09:17:02;;;;;;;8.60;7.80;;;;;;;13.76;100.00;97180.22;5012877;28;20453;-63
2022/10/23 09:19:32;;;;;;;5.40;5.10;;;;;;;13.41;100.00;97180.34;5013553;28;20300;-62
2022/10/23 09:22:00;;;;;;;6.27;5.67;;;;;;;13.70;100.00;97173.03;5011835;28;20217;-62
2022/10/23 09:24:30;;;;;;;5.03;4.63;;;;;;;13.84;100.00;97166.72;5014729;28;20617;-59
2022/10/23 09:26:59;;;;;;;5.63;5.23;;;;;;;14.23;100.00;97161.53;4959268;28;20288;-62
2022/10/23 09:29:30;;;;;;;5.47;5.07;;;;;;;14.32;100.00;97146.16;5013290;28;20505;-58
2022/10/23 09:32:00;;;;;;;6.50;5.90;;;;;;;14.46;100.00;97136.28;5011074;28;21038;-61
2022/10/23 09:34:29;;;;;;;5.53;5.13;;;;;;;14.63;100.00;97128.63;5015153;28;20710;-61
2022/10/23 09:36:59;;;;;;;4.80;4.40;;;;;;;14.99;100.00;97126.44;5013060;28;20507;-61
2022/10/23 09:39:30;;;;;;;4.00;3.80;;;;;;;14.95;100.00;97127.88;5015490;28;20198;-63
2022/10/23 09:42:01;;;;;;;5.77;5.20;;;;;;;14.40;100.00;97124.59;4962683;28;20215;-59
2022/10/23 09:44:31;;;;;;;4.80;4.50;;;;;;;14.01;100.00;97139.63;5012483;28;20233;-61
2022/10/23 09:47:00;;;;;;;4.80;4.40;;;;;;;14.02;100.00;97154.59;5011398;28;20215;-60
2022/10/23 09:49:30;;;;;;;4.87;4.47;;;;;;;13.79;100.00;97139.03;5012643;28;20355;-60
2022/10/23 09:52:05;;;;;;;5.03;4.67;;;;;;;13.44;100.00;97142.72;5012631;28;20444;-60
2022/10/23 09:54:35;;;;;;;5.60;5.20;;;;;;;13.67;100.00;97144.16;5013467;28;20226;-60
2022/10/23 09:57:06;;;;;;;6.30;5.80;;;;;;;13.31;100.00;97138.19;4951721;28;20580;-60
2022/10/23 09:59:35;;;;;;;6.33;5.73;;;;;;;13.32;100.00;97153.94;5012951;28;20670;-61
2022/10/23 10:02:03;;;;;;;11.17;10.13;;;;;;;13.28;100.00;97150.03;5014705;28;20206;-62
2022/10/23 10:04:36;;;;;;;6.07;5.63;;;;;;;13.26;100.00;97152.09;5013225;28;20396;-63
2022/10/23 10:07:18;;;;;;;6.10;5.60;;;;;;;13.80;100.00;97160.13;5011965;28;20468;-61
2022/10/23 10:09:46;;;;;;;6.63;6.03;;;;;;;13.52;100.00;97163.00;5014334;28;20207;-60
2022/10/23 10:12:37;;;;;;;6.77;6.17;;;;;;;13.64;100.00;97157.88;4960449;28;20761;-61
2022/10/23 10:15:14;;;;;;;6.43;6.03;;;;;;;13.79;100.00;97155.03;5010358;28;20972;-61
2022/10/23 10:17:47;;;;;;;7.07;6.43;;;;;;;13.65;100.00;97151.53;5021504;28;20238;-61
2022/10/23 10:20:37;;;;;;;6.73;6.17;;;;;;;13.95;100.00;97149.28;5015001;28;21390;-61
2022/10/23 10:23:14;;;;;;;6.70;6.10;;;;;;;14.09;100.00;97147.41;5014847;28;20621;-60
2022/10/23 10:25:48;;;;;;;7.30;6.70;;;;;;;13.99;100.00;97147.03;5016611;28;20804;-62
2022/10/23 10:28:32;;;;;;;7.77;7.17;;;;;;;13.85;100.00;97138.22;4958899;28;20308;-61
2022/10/23 10:31:08;;;;;;;7.50;6.80;;;;;;;13.43;100.00;97135.75;5014135;28;20813;-61
2022/10/23 10:33:40;;;;;;;6.90;6.40;;;;;;;13.34;100.00;97134.28;5015262;28;20203;-60
2022/10/23 10:36:15;;;;;;;8.53;7.83;;;;;;;13.54;100.00;97129.84;5013493;28;20437;-60
2022/10/23 10:38:47;;;;;;;7.53;6.83;;;;;;;13.72;100.00;97109.75;5015285;28;20293;-63
2022/10/23 10:41:23;;;;;;;7.73;7.03;;;;;;;13.98;100.00;97114.22;5014863;28;20344;-61
2022/10/23 10:44:00;;;;;;;7.00;6.50;;;;;;;13.87;100.00;97106.88;4965894;28;20261;-61
2022/10/23 10:46:32;;;;;;;9.20;8.40;;;;;;;13.80;100.00;97100.75;5014470;28;20269;-60
2022/10/23 10:49:03;;;;;;;14.20;12.83;;;;;;;13.93;100.00;97098.06;5012474;28;20207;-61
2022/10/23 10:51:39;;;;;;;7.80;7.07;;;;;;;14.18;100.00;97095.53;5016177;28;21991;-60
2022/10/23 10:54:19;;;;;;;7.50;6.90;;;;;;;14.39;100.00;97085.63;5013431;28;20191;-61
2022/10/23 10:56:48;;;;;;;6.97;6.47;;;;;;;14.35;100.00;97084.44;5016772;28;20222;-61
2022/10/23 10:59:20;;;;;;;7.47;6.87;;;;;;;14.06;100.00;97096.41;4966961;28;20473;-62
2022/10/23 11:01:53;;;;;;;6.60;6.03;;;;;;;14.27;100.00;97092.66;5015889;28;20512;-61
2022/10/23 11:04:29;;;;;;;6.70;6.20;;;;;;;14.30;100.00;97087.72;5014854;28;20280;-60
2022/10/23 11:06:57;;;;;;;7.63;6.93;;;;;;;14.37;100.00;97082.38;5014779;28;20321;-60
2022/10/23 11:09:28;;;;;;;7.43;6.83;;;;;;;14.45;100.00;97079.47;5016311;28;20203;-61
2022/10/23 11:11:56;;;;;;;12.23;11.07;;;;;;;14.64;100.00;97065.44;5016550;28;20211;-61
2022/10/23 11:14:26;;;;;;;6.83;6.13;;;;;;;14.81;100.00;97055.13;4964176;28;20211;-61
2022/10/23 11:16:57;;;;;;;7.03;6.43;;;;;;;14.71;100.00;97048.41;5014649;28;20238;-62
2022/10/23 11:19:29;;;;;;;6.67;6.07;;;;;;;14.74;100.00;97060.47;5016796;28;20199;-63
2022/10/23 11:21:59;;;;;;;6.70;6.20;;;;;;;14.57;100.00;97049.47;5017445;28;20466;-62
2022/10/23 11:24:52;;;;;;;7.07;6.37;;;;;;;14.59;100.00;97058.91;5018564;28;20231;-62
2022/10/23 11:28:01;;;;;;;7.27;6.67;;;;;;;14.94;100.00;97051.56;5014721;28;20543;-63
2022/10/23 11:30:36;;;;;;;7.60;7.00;;;;;;;14.98;100.00;97036.75;4903716;28;20216;-61
2022/10/23 11:33:42;;;;;;;9.17;8.37;;;;;;;14.76;100.00;97029.09;4950993;28;20216;-61
2022/10/23 11:36:14;;;;;;;16.10;14.53;;;;;;;14.80;100.00;97034.81;4944366;28;21165;-58
2022/10/23 11:38:44;;;;;;;7.87;7.17;;;;;;;14.90;100.00;97027.97;4952183;28;20363;-61
2022/10/23 11:41:21;;;;;;;6.60;6.10;;;;;;;15.05;100.00;97022.34;4954469;28;20216;-60